Time;durP1;ratioP1;P1;durP2;ratioP2;P2;SDS_P1;SDS_P2;PMS_P1;PMS_P2;Temp;Humidity;BMP_temperature;BMP_pressure;BME280_temperature;BME280_humidity;BME280_pressure;Samples;Min_cycle;Max_cycle;Signal;HPM_P1;HPM_P2
2022/11/26 00:01:41;;;;;;;165.18;105.60;;;;;;;0.33;98.19;100857.14;1664309;85;25592;-64
2022/11/26 00:04:09;;;;;;;155.23;102.63;;;;;;;0.33;98.26;100862.46;1666606;85;28199;-61
2022/11/26 00:06:43;;;;;;;150.95;102.60;;;;;;;0.31;98.28;100864.55;1664151;85;25691;-61
2022/11/26 00:09:14;;;;;;;156.87;102.22;;;;;;;0.32;98.44;100866.18;1665527;85;25804;-62
2022/11/26 00:11:42;;;;;;;160.22;109.80;;;;;;;0.34;98.57;100872.58;1670028;85;25952;-61
2022/11/26 00:14:16;;;;;;;171.68;106.30;;;;;;;0.32;98.58;100864.84;1669842;85;25540;-61
2022/11/26 00:16:43;;;;;;;152.32;106.90;;;;;;;0.34;98.62;100869.92;1663824;85;27416;-61
2022/11/26 00:19:10;;;;;;;146.17;99.27;;;;;;;0.35;98.71;100871.55;1670813;85;25622;-61
2022/11/26 00:21:39;;;;;;;164.40;104.30;;;;;;;0.33;98.81;100866.45;1674134;84;25962;-60
2022/11/26 00:24:14;;;;;;;115.05;78.57;;;;;;;0.35;98.87;100871.55;1681908;84;27904;-60
2022/11/26 00:26:40;;;;;;;173.83;104.50;;;;;;;0.38;98.84;100870.30;1668502;84;25631;-61
2022/11/26 00:29:10;;;;;;;157.13;100.07;;;;;;;0.37;98.86;100868.14;1630166;86;27319;-61
2022/11/26 00:31:36;;;;;;;167.07;99.80;;;;;;;0.39;98.88;100879.36;1637199;86;25405;-61
2022/11/26 00:34:02;;;;;;;154.30;109.25;;;;;;;-0.58;99.14;100665.73;1652881;85;25617;-61
2022/11/26 00:36:32;;;;;;;156.12;101.58;;;;;;;0.43;98.86;100875.76;1641274;85;25889;-61
2022/11/26 00:39:06;;;;;;;150.25;105.60;;;;;;;0.42;98.89;100876.78;1650361;85;25497;-60
2022/11/26 00:41:37;;;;;;;144.57;97.47;;;;;;;0.42;98.88;100878.11;1650309;85;27458;-62
2022/11/26 00:44:19;;;;;;;157.13;101.00;;;;;;;0.43;98.93;100876.56;1652860;86;25717;-61
2022/11/26 00:46:45;;;;;;;145.53;98.63;;;;;;;0.44;98.95;100886.15;1655032;85;25459;-61
2022/11/26 06:59:57;;;;;;;84.77;30.57;;;;;;;1.73;94.08;101083.31;1868242;76;34703;-65
2022/11/26 07:02:24;;;;;;;100.38;41.02;;;;;;;1.65;94.11;101086.31;1824429;78;25360;-64
2022/11/26 07:04:50;;;;;;;134.60;92.22;;;;;;;1.62;94.19;101085.46;1824471;78;27882;-62
2022/11/26 07:07:18;;;;;;;114.40;95.62;;;;;;;1.58;94.29;101089.08;1824305;78;25428;-64
2022/11/26 07:09:45;;;;;;;122.53;93.10;;;;;;;1.54;94.47;101091.13;1824535;78;25628;-64
2022/11/26 07:12:11;;;;;;;120.37;99.58;;;;;;;1.52;94.68;101091.88;1824423;77;25396;-64
2022/11/26 07:14:37;;;;;;;118.67;102.60;;;;;;;1.49;94.73;101087.80;1824389;78;25584;-64
2022/11/26 07:17:04;;;;;;;128.32;100.95;;;;;;;1.45;94.91;101091.45;1824458;78;27484;-64
2022/11/26 07:19:31;;;;;;;97.97;76.07;;;;;;;1.42;95.00;101089.23;1824285;78;27333;-63
2022/11/26 07:21:57;;;;;;;80.67;28.87;;;;;;;1.40;95.09;101100.66;1824397;78;25364;-65
2022/11/26 07:24:24;;;;;;;78.12;26.17;;;;;;;1.39;95.22;101100.88;1824346;78;25544;-65
2022/11/26 07:26:51;;;;;;;78.92;28.50;;;;;;;1.35;95.23;101099.72;1824432;78;25475;-65
2022/11/26 07:29:18;;;;;;;70.37;26.77;;;;;;;1.35;95.32;101105.05;1824381;78;29617;-64
2022/11/26 07:31:44;;;;;;;72.40;25.77;;;;;;;1.30;95.50;101103.86;1824291;78;25415;-64
2022/11/26 07:34:10;;;;;;;72.65;26.85;;;;;;;1.30;95.58;101109.72;1824422;78;25516;-65
2022/11/26 07:36:41;;;;;;;80.57;28.07;;;;;;;1.31;95.77;101115.33;1824343;78;25442;-65
2022/11/26 07:39:05;;;;;;;77.53;28.47;;;;;;;1.30;95.88;101117.72;1824071;78;25572;-65
2022/11/26 07:41:32;;;;;;;72.30;27.60;;;;;;;1.29;95.95;101120.91;1824406;78;28430;-65
2022/11/26 07:43:58;;;;;;;65.95;27.30;;;;;;;1.29;96.00;101122.74;1824303;78;25894;-64
2022/11/26 07:46:26;;;;;;;83.58;30.08;;;;;;;1.29;96.06;101125.41;1824402;78;25460;-65
2022/11/26 07:48:55;;;;;;;84.85;37.58;;;;;;;1.27;96.16;101138.96;1824347;78;25454;-66
2022/11/26 07:51:31;;;;;;;72.85;28.77;;;;;;;1.27;96.21;101133.62;1824564;78;25524;-65
2022/11/26 07:54:02;;;;;;;78.37;36.40;;;;;;;1.26;96.23;101136.52;1824401;78;27398;-67
2022/11/26 07:56:29;;;;;;;71.87;28.15;;;;;;;1.26;96.06;101141.84;1824352;78;25656;-68
2022/11/26 07:58:55;;;;;;;68.42;31.30;;;;;;;1.23;96.03;101136.47;1824212;78;25545;-67
2022/11/26 08:01:27;;;;;;;88.55;54.60;;;;;;;1.25;96.31;101144.23;1803951;78;25395;-67
2022/11/26 08:03:54;;;;;;;98.87;87.25;;;;;;;1.26;96.33;101149.84;1824429;78;25558;-67
2022/11/26 08:06:26;;;;;;;115.30;102.87;;;;;;;1.23;96.28;101154.31;1824276;78;27491;-66
2022/11/26 08:08:53;;;;;;;106.15;89.58;;;;;;;1.23;96.18;101151.66;1824356;78;25392;-67
2022/11/26 08:11:23;;;;;;;110.28;98.40;;;;;;;1.22;95.95;101159.34;1823645;78;25613;-67
2022/11/26 08:13:57;;;;;;;105.15;93.95;;;;;;;1.18;95.87;101150.98;1823584;78;25674;-67
2022/11/26 08:16:24;;;;;;;104.95;93.70;;;;;;;1.19;96.19;101152.63;1823841;78;25585;-66
2022/11/26 08:18:55;;;;;;;106.50;95.25;;;;;;;1.21;96.11;101165.70;1823714;78;27601;-66
2022/11/26 08:21:22;;;;;;;103.32;92.62;;;;;;;1.21;96.03;101165.70;1823680;78;25908;-67
2022/11/26 08:23:50;;;;;;;102.10;91.57;;;;;;;1.21;96.01;101171.03;1823748;78;25444;-66
2022/11/26 08:26:16;;;;;;;107.32;95.95;;;;;;;1.20;95.88;101173.42;1823753;78;25446;-59
2022/11/26 08:28:46;;;;;;;110.03;98.05;;;;;;;1.19;95.90;101178.44;1823791;78;25420;-59
2022/11/26 08:31:15;;;;;;;110.85;99.40;;;;;;;1.22;96.47;101164.67;1823762;78;27462;-59
2022/11/26 08:33:42;;;;;;;108.07;96.42;;;;;;;1.26;96.75;101162.67;1823804;78;27390;-59
2022/11/26 08:36:11;;;;;;;110.25;98.50;;;;;;;1.28;96.80;101171.25;1823760;78;25641;-62
2022/11/26 08:38:38;;;;;;;104.60;93.47;;;;;;;1.33;96.53;101171.08;1823708;78;25565;-63
2022/11/26 08:41:11;;;;;;;105.70;94.95;;;;;;;1.29;96.28;101167.56;1823770;78;25622;-63
2022/11/26 08:43:39;;;;;;;109.75;92.72;;;;;;;1.32;96.13;101177.47;1823807;78;28150;-63
2022/11/26 08:46:06;;;;;;;108.60;92.50;;;;;;;1.27;96.00;101172.28;1823698;78;27296;-62
2022/11/26 08:48:34;;;;;;;103.92;93.00;;;;;;;1.28;95.95;101171.78;1823779;78;25415;-62
2022/11/26 08:51:04;;;;;;;106.37;91.80;;;;;;;1.28;95.85;101175.78;1823703;78;25623;-63
2022/11/26 08:53:33;;;;;;;106.32;94.75;;;;;;;1.26;95.74;101177.83;1823192;78;25391;-62
2022/11/26 08:56:07;;;;;;;78.60;65.28;;;;;;;1.24;95.75;101183.91;1823919;78;27435;-67
2022/11/26 08:58:38;;;;;;;114.80;95.22;;;;;;;1.22;95.86;101185.47;1823510;78;25471;-65
2022/11/26 09:01:16;;;;;;;106.70;94.45;;;;;;;1.24;96.00;101188.75;1823603;78;25413;-67
2022/11/26 09:03:48;;;;;;;116.82;94.92;;;;;;;1.22;95.99;101188.13;1823726;78;25431;-68
2022/11/26 09:06:17;;;;;;;106.00;94.45;;;;;;;1.23;96.10;101185.77;1823894;78;25566;-67
2022/11/26 09:11:37;;;;;;;107.10;95.45;;;;;;;1.25;96.04;101189.02;1741376;82;25523;-68
2022/11/26 09:14:05;;;;;;;112.25;93.80;;;;;;;1.25;96.15;101190.36;1741447;82;25617;-66
2022/11/26 09:16:32;;;;;;;113.12;96.92;;;;;;;1.26;96.25;101187.16;1741343;81;25809;-66
2022/11/26 09:19:01;;;;;;;109.07;94.55;;;;;;;1.33;96.23;101196.41;1741392;82;25495;-70
2022/11/26 09:21:29;;;;;;;119.25;97.67;;;;;;;1.27;96.18;101194.13;1741537;82;28163;-67
2022/11/26 09:23:55;;;;;;;108.67;95.85;;;;;;;1.28;96.27;101187.25;1741311;82;25583;-68
2022/11/26 09:26:24;;;;;;;113.00;97.67;;;;;;;1.29;96.23;101190.22;1741428;82;25562;-70
2022/11/26 09:28:52;;;;;;;104.27;92.30;;;;;;;1.29;96.27;101192.88;1741527;82;25491;-68
2022/11/26 09:31:19;;;;;;;116.00;93.45;;;;;;;1.30;96.39;101185.16;1741579;82;25537;-69
2022/11/26 09:33:47;;;;;;;106.85;95.17;;;;;;;1.30;96.15;101187.83;1741751;81;27079;-69
2022/11/26 09:36:17;;;;;;;100.47;89.52;;;;;;;1.31;96.19;101193.96;1741909;82;25578;-69
2022/11/26 09:38:44;;;;;;;106.60;95.00;;;;;;;1.31;96.07;101200.63;1741475;82;25567;-70
2022/11/26 09:41:42;;;;;;;105.35;94.22;;;;;;;1.32;96.10;101196.94;1741301;82;25731;-70
2022/11/26 09:44:47;;;;;;;105.07;93.95;;;;;;;1.31;96.06;101193.96;1741432;82;25571;-69
2022/11/26 09:47:41;;;;;;;108.35;94.25;;;;;;;1.33;95.99;101199.91;1740898;82;27528;-69
2022/11/26 09:50:16;;;;;;;105.65;92.45;;;;;;;1.34;96.15;101201.52;1734693;82;25586;-70
2022/11/26 09:53:00;;;;;;;109.05;95.32;;;;;;;1.34;96.26;101196.19;1734769;82;25485;-70
2022/11/26 09:55:34;;;;;;;112.50;100.15;;;;;;;1.36;96.32;101202.09;1734854;82;25453;-71
2022/11/26 09:58:06;;;;;;;106.17;92.22;;;;;;;1.36;96.14;101203.96;1734966;82;25483;-71
2022/11/26 10:00:37;;;;;;;110.85;96.57;;;;;;;1.35;96.21;101203.16;1734704;82;27501;-70
2022/11/26 10:03:12;;;;;;;106.95;90.97;;;;;;;1.36;96.21;101202.63;1705690;82;25691;-70
2022/11/26 10:05:49;;;;;;;105.35;91.65;;;;;;;1.36;96.14;101199.96;1734109;82;25394;-71
2022/11/26 10:08:52;;;;;;;100.00;89.32;;;;;;;1.36;96.10;101204.77;1734755;82;25447;-70
2022/11/26 10:11:35;;;;;;;106.55;95.05;;;;;;;1.36;96.25;101200.77;1734589;81;26962;-70
2022/11/26 10:14:24;;;;;;;102.58;90.92;;;;;;;1.37;96.08;101203.73;1734752;82;28223;-70
2022/11/26 10:17:22;;;;;;;71.50;63.80;;;;;;;1.38;96.07;101204.54;1734944;82;25537;-70
2022/11/26 10:20:13;;;;;;;101.30;90.75;;;;;;;1.37;96.16;101206.93;1734777;82;25438;-69
2022/11/26 10:23:02;;;;;;;100.77;90.17;;;;;;;1.40;96.22;101217.16;1734712;82;25636;-70
2022/11/26 10:25:35;;;;;;;106.78;95.67;;;;;;;1.40;96.31;101211.29;1734954;82;25623;-70
2022/11/26 10:28:05;;;;;;;105.00;91.90;;;;;;;1.43;96.46;101219.34;1734760;82;27451;-70
2022/11/26 10:30:32;;;;;;;107.35;94.85;;;;;;;1.46;96.55;101217.56;1734801;82;25595;-70
2022/11/26 10:33:01;;;;;;;100.47;90.35;;;;;;;1.47;96.43;101225.88;1734762;82;25530;-70
2022/11/26 10:35:28;;;;;;;;;;;;;;;1.46;96.16;101222.41;1737291;82;25552;-71
2022/11/26 10:37:56;;;;;;;99.93;87.37;;;;;;;1.48;96.13;101228.31;1734773;82;25635;-70
2022/11/26 10:40:26;;;;;;;114.60;93.27;;;;;;;1.45;96.15;101223.95;1734739;82;27528;-70
2022/11/26 10:43:11;;;;;;;100.87;90.37;;;;;;;1.47;96.11;101224.54;1734660;82;25562;-70
2022/11/26 10:45:48;;;;;;;98.67;88.17;;;;;;;1.45;95.89;101222.09;1733451;82;25730;-70
2022/11/26 10:48:32;;;;;;;109.40;88.43;;;;;;;1.43;95.88;101222.01;1734763;82;25788;-70
2022/11/26 10:51:27;;;;;;;102.38;91.32;;;;;;;1.42;95.84;101221.73;1734888;82;25410;-71
2022/11/26 10:53:59;;;;;;;54.73;22.02;;;;;;;1.46;95.88;101228.23;1734651;82;27536;-71
2022/11/26 10:56:44;;;;;;;112.88;97.72;;;;;;;1.45;95.87;101227.42;1734736;82;25807;-72
2022/11/26 10:59:35;;;;;;;93.78;78.12;;;;;;;1.43;95.86;101229.52;1734700;82;25539;-71
2022/11/26 11:02:23;;;;;;;105.72;94.47;;;;;;;1.42;96.03;101226.53;1734348;82;25476;-72
2022/11/26 11:04:54;;;;;;;110.35;94.60;;;;;;;1.42;96.20;101223.87;1734826;82;25471;-71
2022/11/26 11:07:38;;;;;;;113.97;98.00;;;;;;;1.43;96.30;101226.84;1734776;82;27578;-72
2022/11/26 11:10:15;;;;;;;104.15;93.12;;;;;;;1.43;96.30;101226.84;1731841;81;25941;-71
2022/11/26 11:12:48;;;;;;;104.67;93.45;;;;;;;1.47;96.00;101235.20;1734755;82;25580;-70
2022/11/26 11:15:23;;;;;;;105.35;93.80;;;;;;;1.45;95.90;101240.76;1734680;82;25592;-71
2022/11/26 11:18:15;;;;;;;102.10;91.17;;;;;;;1.42;95.75;101233.20;1734751;82;25636;-70
2022/11/26 11:20:55;;;;;;;104.10;93.27;;;;;;;1.43;95.95;101244.67;1734722;82;28013;-70
2022/11/26 11:23:34;;;;;;;111.62;95.67;;;;;;;1.43;96.18;101234.84;1734861;82;25541;-71
2022/11/26 11:26:18;;;;;;;98.85;88.37;;;;;;;1.41;95.95;101234.23;1734866;82;25549;-72
2022/11/26 11:28:54;;;;;;;102.97;92.00;;;;;;;1.42;95.96;101237.73;1730696;82;25862;-71
2022/11/26 11:31:24;;;;;;;86.42;65.25;;;;;;;1.41;95.85;101238.76;1734825;82;25494;-71
2022/11/26 11:33:56;;;;;;;100.40;90.07;;;;;;;1.39;95.83;101242.98;1735020;82;28254;-72
2022/11/26 11:36:28;;;;;;;62.05;39.55;;;;;;;1.38;95.73;101242.70;1731669;82;25612;-71
2022/11/26 11:39:02;;;;;;;48.00;21.57;;;;;;;1.38;95.51;101250.70;1734639;82;25600;-72
2022/11/26 11:41:45;;;;;;;109.37;97.67;;;;;;;1.35;95.57;101247.14;1734690;82;25498;-71
2022/11/26 11:44:23;;;;;;;106.03;89.30;;;;;;;1.37;95.67;101257.58;1734799;82;25603;-69
2022/11/26 11:47:03;;;;;;;104.00;93.40;;;;;;;1.36;95.66;101255.94;1734938;82;27533;-72
2022/11/26 11:49:47;;;;;;;71.15;43.73;;;;;;;1.32;95.41;101260.11;1734782;82;25657;-72
2022/11/26 11:52:46;;;;;;;53.23;24.65;;;;;;;1.34;95.54;101266.02;1734555;82;25616;-72
2022/11/26 11:55:27;;;;;;;106.32;95.05;;;;;;;1.33;95.54;101271.88;1735010;82;25593;-69
2022/11/26 11:58:42;;;;;;;107.65;95.80;;;;;;;1.30;95.56;101267.80;1727923;82;25594;-70
2022/11/26 12:01:28;;;;;;;105.67;94.10;;;;;;;1.31;95.63;101272.60;1734849;82;27547;-67
2022/11/26 12:04:25;;;;;;;100.87;90.35;;;;;;;1.28;95.56;101274.41;1734271;82;25624;-70
2022/11/26 12:07:40;;;;;;;106.25;94.80;;;;;;;1.28;95.27;101269.08;1734839;82;25599;-68
2022/11/26 12:10:28;;;;;;;103.05;92.95;;;;;;;1.25;95.19;101279.64;1733724;81;25802;-69
2022/11/26 12:12:58;;;;;;;105.52;92.78;;;;;;;1.24;95.27;101271.37;1726928;83;25556;-69
2022/11/26 12:15:33;;;;;;;106.12;94.62;;;;;;;1.25;95.28;101277.51;1726995;83;27502;-72
2022/11/26 12:18:23;;;;;;;107.30;94.45;;;;;;;1.24;95.27;101275.87;1726946;83;25618;-71
2022/11/26 12:21:06;;;;;;;71.95;56.70;;;;;;;1.23;95.30;101275.59;1725849;83;25605;-69
2022/11/26 12:23:58;;;;;;;76.00;57.88;;;;;;;1.23;95.47;101279.06;1727040;83;25507;-72
2022/11/26 12:26:33;;;;;;;;;;;;;;;1.24;95.62;101283.36;1729771;83;25548;-72
2022/11/26 12:29:14;;;;;;;102.42;92.20;;;;;;;1.26;95.40;101285.78;1727007;83;27666;-72
2022/11/26 12:31:54;;;;;;;103.92;93.45;;;;;;;1.22;95.18;101282.75;1727026;83;25481;-72
2022/11/26 12:34:38;;;;;;;97.97;87.57;;;;;;;1.22;95.18;101279.28;1727016;83;25553;-65
2022/11/26 12:37:13;;;;;;;99.97;90.25;;;;;;;1.22;95.18;101284.61;1726588;83;25576;-62
2022/11/26 12:39:48;;;;;;;104.97;93.82;;;;;;;1.22;95.14;101285.94;1724892;83;25595;-63
2022/11/26 12:42:19;;;;;;;106.65;94.87;;;;;;;1.21;94.99;101290.97;1727005;83;27492;-61
2022/11/26 12:44:50;;;;;;;106.17;94.95;;;;;;;1.17;94.73;101287.93;1726765;83;25575;-61
2022/11/26 12:47:22;;;;;;;104.87;93.95;;;;;;;1.13;94.65;101290.75;1726987;83;25414;-61
2022/11/26 12:50:20;;;;;;;84.42;60.40;;;;;;;1.13;94.69;101291.28;1719381;83;26070;-63
2022/11/26 12:53:13;;;;;;;106.05;94.47;;;;;;;1.11;94.73;101293.64;1726760;83;25635;-62
2022/11/26 12:56:07;;;;;;;111.50;94.22;;;;;;;1.07;94.62;101289.80;1727073;83;28164;-64
2022/11/26 12:59:03;;;;;;;114.10;98.10;;;;;;;1.07;94.47;101288.47;1726807;83;25621;-63
2022/11/26 13:01:31;;;;;;;110.57;98.58;;;;;;;0.99;94.41;101295.41;1726967;83;25552;-63
2022/11/26 13:04:01;;;;;;;74.45;65.50;;;;;;;1.00;94.49;101300.21;1727047;83;25483;-66
2022/11/26 13:07:01;;;;;;;76.67;66.85;;;;;;;0.98;94.55;101303.63;1727086;83;25533;-64
2022/11/26 13:09:47;;;;;;;108.42;96.87;;;;;;;0.95;94.65;101292.88;1706460;83;27579;-67
2022/11/26 13:12:31;;;;;;;101.35;90.38;;;;;;;0.97;94.81;101300.16;1722097;83;25497;-67
2022/11/26 13:15:21;;;;;;;104.67;91.97;;;;;;;0.97;94.85;101308.14;1726934;83;25527;-67
2022/11/26 13:17:50;;;;;;;104.00;92.53;;;;;;;0.95;94.82;101303.53;1727634;83;25528;-65
2022/11/26 13:20:39;;;;;;;103.35;92.35;;;;;;;0.93;94.79;101313.59;1727676;83;25446;-63
2022/11/26 13:23:48;;;;;;;105.10;92.72;;;;;;;0.88;94.81;101304.92;1727055;83;27564;-64
2022/11/26 13:26:48;;;;;;;107.70;90.42;;;;;;;0.89;94.72;101313.22;1727491;83;25671;-64
2022/11/26 13:29:32;;;;;;;76.65;66.55;;;;;;;0.86;94.51;101325.64;1727708;83;25638;-65
2022/11/26 13:32:41;;;;;;;113.62;93.20;;;;;;;0.84;94.37;101329.58;1726931;83;25599;-65
2022/11/26 13:35:45;;;;;;;104.38;92.92;;;;;;;0.77;94.23;101324.30;1727701;83;25457;-65
2022/11/26 13:38:31;;;;;;;101.75;90.53;;;;;;;0.72;94.37;101327.61;1727527;83;27486;-64
2022/11/26 13:41:31;;;;;;;103.07;92.08;;;;;;;0.71;94.53;101329.16;1727374;83;27552;-63
2022/11/26 13:44:30;;;;;;;;;;;;;;;0.69;94.65;101324.57;1744208;81;25656;-65
2022/11/26 13:47:12;;;;;;;98.33;88.17;;;;;;;0.71;94.69;101331.82;1753807;81;25568;-65
2022/11/26 13:50:02;;;;;;;99.85;89.10;;;;;;;0.62;94.72;101325.95;1752504;81;25740;-66
2022/11/26 13:52:53;;;;;;;112.95;90.95;;;;;;;0.63;94.77;101338.25;1753529;81;27829;-66
2022/11/26 13:55:33;;;;;;;108.03;90.57;;;;;;;0.64;94.70;101337.72;1753671;81;25582;-65
2022/11/26 13:58:04;;;;;;;102.30;91.65;;;;;;;0.62;94.75;101343.78;1753875;81;25390;-67
2022/11/26 14:00:34;;;;;;;108.47;91.25;;;;;;;0.58;94.68;101344.73;1753841;81;25651;-65
2022/11/26 14:03:04;;;;;;;100.92;87.65;;;;;;;0.58;94.71;101344.73;1753972;81;25469;-63
2022/11/26 14:05:56;;;;;;;59.93;27.13;;;;;;;0.59;94.81;101351.67;1753964;81;27473;-67
2022/11/26 14:08:42;;;;;;;114.57;99.72;;;;;;;0.59;94.72;101358.86;1753601;81;25719;-65
2022/11/26 14:11:12;;;;;;;102.58;91.50;;;;;;;0.58;94.72;101360.72;1749980;81;25530;-65
2022/11/26 14:13:39;;;;;;;71.20;63.87;;;;;;;0.53;94.80;101357.36;1734829;82;25556;-65
2022/11/26 14:16:10;;;;;;;99.37;89.03;;;;;;;0.55;94.82;101364.61;1734737;82;25555;-63
2022/11/26 14:18:56;;;;;;;100.38;89.72;;;;;;;0.55;94.82;101366.47;1734700;82;28347;-63
2022/11/26 14:21:24;;;;;;;103.38;91.40;;;;;;;0.53;94.77;101369.34;1729655;82;25577;-62
2022/11/26 14:23:55;;;;;;;101.10;90.35;;;;;;;0.53;94.69;101368.53;1734724;82;25628;-64
2022/11/26 14:26:33;;;;;;;103.15;91.85;;;;;;;0.52;94.65;101370.36;1733852;82;26085;-63
2022/11/26 14:29:12;;;;;;;98.22;87.30;;;;;;;0.51;94.64;101369.23;1734771;82;25536;-62
2022/11/26 14:31:50;;;;;;;71.15;63.52;;;;;;;0.50;94.58;101373.76;1734889;82;27506;-65
2022/11/26 14:34:38;;;;;;;100.42;89.58;;;;;;;0.47;94.56;101371.52;1734669;82;25443;-65
2022/11/26 14:37:12;;;;;;;104.53;90.17;;;;;;;0.48;94.54;101375.02;1734725;82;25556;-64
2022/11/26 14:39:40;;;;;;;112.37;94.17;;;;;;;0.46;94.46;101377.06;1734621;82;25573;-62
2022/11/26 14:42:18;;;;;;;105.50;91.60;;;;;;;0.43;94.47;101373.52;1734720;82;25561;-63
2022/11/26 14:44:45;;;;;;;100.05;88.07;;;;;;;0.42;94.53;101370.02;1734904;82;27502;-64
2022/11/26 14:47:19;;;;;;;102.90;92.45;;;;;;;0.42;94.57;101372.68;1734592;82;25625;-63
2022/11/26 14:49:54;;;;;;;101.53;91.05;;;;;;;0.42;94.62;101371.88;1734731;82;25645;-64
2022/11/26 14:52:35;;;;;;;112.17;97.12;;;;;;;0.40;94.62;101369.42;1734641;82;26430;-64
2022/11/26 14:55:17;;;;;;;100.05;89.17;;;;;;;0.41;94.66;101367.56;1733717;82;25533;-65
2022/11/26 14:57:52;;;;;;;99.60;88.03;;;;;;;0.41;94.72;101375.06;1733973;82;27728;-64
2022/11/26 15:00:28;;;;;;;105.33;89.17;;;;;;;0.38;94.77;101369.35;1734527;82;25761;-64
2022/11/26 15:02:57;;;;;;;100.00;89.20;;;;;;;0.38;94.76;101375.48;1707298;82;25590;-63
2022/11/26 15:05:27;;;;;;;;;;;;;;;0.38;94.73;101372.02;1737300;82;25619;-65
2022/11/26 15:08:07;;;;;;;102.15;91.72;;;;;;;0.40;94.67;101383.26;1734864;82;25593;-61
2022/11/26 15:10:49;;;;;;;105.03;94.45;;;;;;;0.38;94.64;101380.80;1733697;82;27524;-62
2022/11/26 15:13:37;;;;;;;105.15;93.90;;;;;;;0.36;94.61;101381.02;1754087;81;25421;-61
2022/11/26 15:16:32;;;;;;;77.72;69.32;;;;;;;0.35;94.56;101387.36;1749960;80;25570;-62
2022/11/26 15:19:02;;;;;;;106.30;94.77;;;;;;;0.32;94.47;101393.63;1725445;83;25536;-62
2022/11/26 15:21:29;;;;;;;99.42;88.60;;;;;;;0.32;94.39;101395.80;1725865;83;25543;-62
2022/11/26 15:24:01;;;;;;;104.30;93.07;;;;;;;0.30;94.40;101399.69;1726046;83;27439;-62
2022/11/26 15:26:34;;;;;;;102.82;91.90;;;;;;;0.29;94.38;101398.05;1725911;83;25427;-61
2022/11/26 15:29:01;;;;;;;96.42;82.30;;;;;;;0.28;94.43;101400.42;1725997;83;25622;-60
2022/11/26 15:31:42;;;;;;;72.82;53.85;;;;;;;0.28;94.46;101404.41;1725629;83;26189;-62
2022/11/26 15:34:15;;;;;;;61.40;32.93;;;;;;;0.28;94.51;101406.55;1725942;83;25470;-62
2022/11/26 15:36:41;;;;;;;64.80;22.45;;;;;;;0.28;94.48;101411.06;1725958;83;27719;-61
2022/11/26 15:39:29;;;;;;;92.82;76.87;;;;;;;0.27;94.48;101406.76;1725889;83;25396;-61
2022/11/26 15:42:02;;;;;;;108.80;94.45;;;;;;;0.27;94.39;101406.23;1725954;83;25475;-62
2022/11/26 15:44:31;;;;;;;97.40;65.47;;;;;;;0.25;94.30;101414.95;1725908;83;25462;-62
2022/11/26 15:47:01;;;;;;;116.65;95.05;;;;;;;0.25;94.18;101413.62;1725922;83;25561;-61
2022/11/26 15:49:39;;;;;;;118.93;97.05;;;;;;;0.23;94.19;101403.71;1725951;81;27672;-61
2022/11/26 15:52:14;;;;;;;105.15;93.58;;;;;;;0.24;94.19;101403.19;1725915;83;25606;-61
2022/11/26 15:54:46;;;;;;;114.47;97.67;;;;;;;0.23;94.23;101405.04;1725902;83;25394;-61
2022/11/26 15:57:26;;;;;;;91.87;69.17;;;;;;;0.23;94.29;101413.55;1725264;83;25648;-61
2022/11/26 15:59:58;;;;;;;107.35;89.47;;;;;;;0.25;94.30;101418.13;1725976;83;25565;-60
2022/11/26 16:02:29;;;;;;;108.27;96.45;;;;;;;0.26;94.42;101413.94;1725926;83;27506;-60
2022/11/26 16:05:03;;;;;;;100.60;88.75;;;;;;;0.23;94.42;101410.36;1725895;83;25467;-60
2022/11/26 16:07:32;;;;;;;92.65;73.05;;;;;;;0.21;94.34;101410.29;1725939;83;25388;-60
2022/11/26 16:10:23;;;;;;;73.30;55.85;;;;;;;0.26;94.32;101414.45;1726003;83;25615;-62
2022/11/26 16:13:18;;;;;;;99.42;88.47;;;;;;;0.24;94.34;101416.00;1725852;83;25450;-61
2022/11/26 16:16:05;;;;;;;107.03;95.85;;;;;;;0.24;94.27;101413.83;1725949;83;27514;-62
2022/11/26 16:18:40;;;;;;;110.65;98.80;;;;;;;0.21;94.28;101412.95;1725918;83;25554;-61
2022/11/26 16:21:27;;;;;;;104.03;93.35;;;;;;;0.23;94.24;101414.88;1725999;83;25406;-62
2022/11/26 16:24:01;;;;;;;108.03;95.67;;;;;;;0.23;94.37;101416.20;1725419;83;25512;-61
2022/11/26 16:26:29;;;;;;;108.17;96.87;;;;;;;0.22;94.41;101418.03;1725991;83;25600;-61
2022/11/26 16:28:55;;;;;;;111.80;96.55;;;;;;;0.23;94.24;101425.00;1725881;83;27557;-61
2022/11/26 16:31:23;;;;;;;110.08;98.50;;;;;;;0.20;94.20;101427.27;1725760;83;25494;-62
2022/11/26 16:33:49;;;;;;;143.72;113.08;;;;;;;0.22;94.36;101426.53;1725538;83;25655;-62
2022/11/26 16:36:20;;;;;;;122.78;100.45;;;;;;;0.24;94.59;101431.13;1725369;83;27664;-60
2022/11/26 16:38:48;;;;;;;107.12;94.97;;;;;;;0.29;94.63;101434.81;1725864;83;25998;-61
2022/11/26 16:41:20;;;;;;;82.25;73.60;;;;;;;0.31;94.62;101437.26;1726094;83;27549;-60
2022/11/26 16:43:47;;;;;;;85.65;65.47;;;;;;;0.36;94.54;101440.09;1725891;83;25538;-60
2022/11/26 16:46:19;;;;;;;76.05;45.63;;;;;;;0.38;94.50;101438.56;1725900;83;25614;-62
2022/11/26 16:48:47;;;;;;;66.82;27.60;;;;;;;0.40;94.29;101440.48;1725521;83;25459;-62
2022/11/26 16:51:13;;;;;;;76.62;35.05;;;;;;;0.39;94.10;101442.84;1725919;83;25390;-63
2022/11/26 16:53:39;;;;;;;92.57;69.10;;;;;;;0.38;94.06;101442.55;1725888;83;28213;-61
2022/11/26 16:56:20;;;;;;;57.13;21.02;;;;;;;0.36;93.91;101442.23;1725782;83;25401;-62
2022/11/26 16:58:50;;;;;;;77.90;59.27;;;;;;;0.36;93.92;101446.75;1713377;83;25608;-59
2022/11/26 17:01:17;;;;;;;92.40;66.82;;;;;;;0.35;93.97;101447.25;1725956;83;25611;-60
2022/11/26 17:03:44;;;;;;;113.40;98.78;;;;;;;0.37;93.99;101445.70;1725911;83;25612;-58
2022/11/26 17:06:18;;;;;;;108.47;95.50;;;;;;;0.34;93.83;101444.30;1725853;83;27476;-61
2022/11/26 17:08:45;;;;;;;101.40;90.40;;;;;;;0.33;93.72;101450.64;1725896;83;25636;-59
2022/11/26 17:11:13;;;;;;;104.63;93.22;;;;;;;0.32;93.69;101449.03;1725929;83;25466;-60
2022/11/26 17:13:40;;;;;;;105.70;94.55;;;;;;;0.33;93.74;101447.17;1710028;83;25549;-60
2022/11/26 17:16:18;;;;;;;107.22;93.65;;;;;;;0.31;93.72;101450.56;1705473;84;25633;-60
2022/11/26 17:18:47;;;;;;;102.90;92.10;;;;;;;0.29;93.70;101448.61;1704722;84;27969;-61
2022/11/26 17:21:15;;;;;;;36.65;18.75;;;;;;;0.29;93.56;101448.61;1705451;84;25432;-61
2022/11/26 17:23:41;;;;;;;78.40;64.12;;;;;;;0.26;93.51;101457.04;1705393;84;25434;-60
2022/11/26 17:26:23;;;;;;;91.72;80.80;;;;;;;0.26;93.47;101461.84;1705454;84;25513;-60
2022/11/26 17:28:50;;;;;;;100.18;89.67;;;;;;;0.24;93.35;101459.91;1677288;84;25417;-60
2022/11/26 17:31:17;;;;;;;96.75;86.82;;;;;;;0.22;93.22;101466.45;1705354;84;27506;-59
2022/11/26 17:33:44;;;;;;;103.10;92.75;;;;;;;0.19;93.20;101463.72;1705301;84;26184;-58
2022/11/26 17:36:20;;;;;;;102.17;91.45;;;;;;;0.17;93.14;101465.75;1705329;84;25574;-60
2022/11/26 17:38:49;;;;;;;99.35;89.07;;;;;;;0.16;93.14;101466.80;1705441;84;25632;-60
2022/11/26 17:41:16;;;;;;;102.50;91.63;;;;;;;0.14;93.12;101468.86;1705524;84;32819;-61
2022/11/26 17:43:44;;;;;;;104.63;93.80;;;;;;;0.13;93.13;101465.88;1705368;84;28131;-60
2022/11/26 17:46:18;;;;;;;55.05;27.37;;;;;;;0.09;93.08;101467.34;1677173;84;25430;-60
2022/11/26 17:48:46;;;;;;;53.45;20.48;;;;;;;0.06;93.01;101467.75;1705397;84;25444;-60
2022/11/26 17:51:15;;;;;;;51.80;19.27;;;;;;;0.06;93.06;101477.87;1705356;84;25666;-59
2022/11/26 17:53:43;;;;;;;71.10;62.60;;;;;;;0.06;93.06;101481.05;1705522;84;25473;-60
2022/11/26 17:56:21;;;;;;;104.25;93.47;;;;;;;0.03;93.05;101476.15;1705445;84;27418;-60
2022/11/26 17:58:49;;;;;;;103.05;92.45;;;;;;;0.02;93.13;101479.82;1705317;84;25497;-60
2022/11/26 18:01:16;;;;;;;100.72;89.90;;;;;;;0.02;93.19;101476.67;1705329;84;25476;-59
2022/11/26 18:03:45;;;;;;;104.92;93.72;;;;;;;0.03;93.21;101478.28;1705309;84;25577;-58